Time;durP1;ratioP1;P1;durP2;ratioP2;P2;SDS_P1;SDS_P2;PMS_P1;PMS_P2;Temp;Humidity;BMP_temperature;BMP_pressure;BME280_temperature;BME280_humidity;BME280_pressure;Samples;Min_cycle;Max_cycle;Signal;HPM_P1;HPM_P2
2021/09/30 00:00:47;;;;;;;;;;;7.90;99.90;;;;;;5074893;28;19986;-75
2021/09/30 00:03:15;;;;;;;;;;;7.90;99.90;;;;;;5075074;28;19942;-75
2021/09/30 00:05:43;;;;;;;;;;;7.90;99.90;;;;;;5074903;28;19924;-76
2021/09/30 00:08:09;;;;;;;;;;;7.90;99.90;;;;;;5074811;28;19924;-75
2021/09/30 00:10:37;;;;;;;;;;;7.90;99.90;;;;;;5074817;28;19929;-75
2021/09/30 00:13:06;;;;;;;;;;;7.90;99.90;;;;;;5074983;28;19936;-75
2021/09/30 00:15:45;;;;;;;;;;;7.90;99.90;;;;;;5074779;28;19931;-75
2021/09/30 00:18:28;;;;;;;;;;;7.90;99.90;;;;;;5073897;28;19925;-75
2021/09/30 00:34:51;;;;;;;;;;;8.00;99.90;;;;;;5078692;28;19990;-75
2021/09/30 00:40:26;;;;;;;;;;;8.00;99.90;;;;;;5047676;28;19920;-75
2021/09/30 00:45:46;;;;;;;;;;;8.00;99.90;;;;;;5078624;28;20272;-76
2021/09/30 00:48:42;;;;;;;;;;;8.00;99.90;;;;;;5077863;28;19932;-76
2021/09/30 00:51:20;;;;;;;;;;;8.00;99.90;;;;;;5077976;28;19925;-76
2021/09/30 00:54:13;;;;;;;;;;;8.00;99.90;;;;;;5078280;28;19972;-76
2021/09/30 01:57:58;;;;;;;;;;;8.90;99.90;;;;;;5015789;28;20323;-76
2021/09/30 02:19:58;;;;;;;;;;;9.10;99.90;;;;;;5015631;28;20039;-77
2021/09/30 02:22:37;;;;;;;;;;;9.10;99.90;;;;;;5015338;28;19925;-77
2021/09/30 02:39:30;;;;;;;;;;;9.10;99.90;;;;;;5034806;28;20027;-77
2021/09/30 02:58:31;;;;;;;;;;;9.30;99.90;;;;;;5034521;28;19932;-77
2021/09/30 03:00:59;;;;;;;;;;;9.30;99.90;;;;;;5034435;28;19925;-77
2021/09/30 03:03:25;;;;;;;;;;;9.30;99.90;;;;;;5034293;28;19932;-77
2021/09/30 03:05:54;;;;;;;;;;;9.30;99.90;;;;;;5034356;28;19925;-77
2021/09/30 03:08:22;;;;;;;;;;;9.30;99.90;;;;;;5034030;28;19943;-77
2021/09/30 03:10:51;;;;;;;;;;;9.40;99.90;;;;;;5070448;28;19924;-77
2021/09/30 03:13:18;;;;;;;;;;;9.40;99.90;;;;;;5075810;28;20367;-77
2021/09/30 03:15:51;;;;;;;;;;;9.40;99.90;;;;;;5075523;28;20391;-77
2021/09/30 03:18:29;;;;;;;;;;;9.40;99.90;;;;;;5075496;28;20023;-77
2021/09/30 03:23:48;;;;;;;;;;;9.40;99.90;;;;;;5033842;28;19929;-77
2021/09/30 03:26:15;;;;;;;;;;;9.40;99.90;;;;;;5033922;28;19925;-77
2021/09/30 03:28:42;;;;;;;;;;;9.40;99.90;;;;;;5033715;28;20019;-77
2021/09/30 03:31:08;;;;;;;;;;;9.40;99.90;;;;;;5033645;28;19925;-77
2021/09/30 03:33:35;;;;;;;;;;;9.40;99.90;;;;;;5033662;28;20235;-77
2021/09/30 03:36:04;;;;;;;;;;;9.40;99.90;;;;;;5033695;28;19929;-77
2021/09/30 03:38:31;;;;;;;;;;;9.40;99.90;;;;;;5033607;28;19929;-77
2021/09/30 03:40:57;;;;;;;;;;;9.40;99.90;;;;;;5033651;28;20292;-77
2021/09/30 03:43:24;;;;;;;;;;;9.40;99.90;;;;;;5033719;28;19932;-77
2021/09/30 03:45:51;;;;;;;;;;;9.40;99.90;;;;;;5033612;28;19925;-76
2021/09/30 03:48:18;;;;;;;;;;;9.40;99.90;;;;;;5033482;28;19929;-76
2021/09/30 03:50:51;;;;;;;;;;;9.40;99.90;;;;;;5033577;28;20341;-76
2021/09/30 03:53:25;;;;;;;;;;;9.30;99.90;;;;;;5033563;28;19925;-76
2021/09/30 04:01:20;;;;;;;;;;;9.30;99.90;;;;;;5071385;28;19930;-76
2021/09/30 04:03:47;;;;;;;;;;;9.30;99.90;;;;;;5075185;28;19939;-76
2021/09/30 04:06:13;;;;;;;;;;;9.30;99.90;;;;;;5074954;28;20355;-75
2021/09/30 04:08:42;;;;;;;;;;;9.30;99.90;;;;;;5075013;28;19925;-76
2021/09/30 04:11:08;;;;;;;;;;;9.30;99.90;;;;;;5074878;28;19924;-76
2021/09/30 04:13:35;;;;;;;;;;;9.30;99.90;;;;;;5075314;28;20253;-76
2021/09/30 04:16:02;;;;;;;;;;;9.30;99.90;;;;;;5074780;28;19928;-76
2021/09/30 04:18:29;;;;;;;;;;;9.30;99.90;;;;;;5075002;28;19924;-76
2021/09/30 04:20:56;;;;;;;;;;;9.30;99.90;;;;;;5074915;28;19924;-76
2021/09/30 04:23:23;;;;;;;;;;;9.30;99.90;;;;;;5074888;28;20348;-76
2021/09/30 04:25:51;;;;;;;;;;;9.30;99.90;;;;;;5074757;28;19924;-76
2021/09/30 04:28:19;;;;;;;;;;;9.30;99.90;;;;;;5074970;28;20341;-76
2021/09/30 04:30:47;;;;;;;;;;;9.30;99.90;;;;;;5074574;28;19925;-76
2021/09/30 04:33:15;;;;;;;;;;;9.30;99.90;;;;;;5074844;28;20362;-76
2021/09/30 04:35:42;;;;;;;;;;;9.30;99.90;;;;;;5074870;28;20353;-76
2021/09/30 04:38:09;;;;;;;;;;;9.30;99.90;;;;;;5074666;28;19924;-76
2021/09/30 04:40:37;;;;;;;;;;;9.30;99.90;;;;;;5074606;28;19924;-76
2021/09/30 04:43:05;;;;;;;;;;;9.30;99.90;;;;;;5074877;28;19924;-76
2021/09/30 04:45:32;;;;;;;;;;;9.30;99.90;;;;;;5074661;28;20363;-76
2021/09/30 04:47:59;;;;;;;;;;;9.30;99.90;;;;;;5074457;28;19925;-76
2021/09/30 04:50:26;;;;;;;;;;;9.30;99.90;;;;;;5073697;28;19925;-76
2021/09/30 04:52:58;;;;;;;;;;;9.30;99.90;;;;;;5074446;28;19924;-76
2021/09/30 04:55:24;;;;;;;;;;;9.30;99.90;;;;;;5074601;28;20329;-76
2021/09/30 04:57:51;;;;;;;;;;;9.30;99.90;;;;;;5074405;28;19928;-76
2021/09/30 05:00:19;;;;;;;;;;;9.30;99.90;;;;;;5074420;28;19924;-76
2021/09/30 05:02:47;;;;;;;;;;;9.30;99.90;;;;;;5074309;28;20361;-76
2021/09/30 05:05:14;;;;;;;;;;;9.30;99.90;;;;;;5074427;28;19935;-76
2021/09/30 05:07:41;;;;;;;;;;;9.40;99.90;;;;;;5074656;28;19924;-76
2021/09/30 05:10:11;;;;;;;;;;;9.30;99.90;;;;;;5077808;28;20344;-76
2021/09/30 05:12:37;;;;;;;;;;;9.40;99.90;;;;;;5077802;28;19933;-77
2021/09/30 05:15:05;;;;;;;;;;;9.40;99.90;;;;;;5077889;28;20023;-77
2021/09/30 05:17:33;;;;;;;;;;;9.40;99.90;;;;;;5077868;28;20033;-77
2021/09/30 05:20:00;;;;;;;;;;;9.40;99.90;;;;;;5077745;28;19928;-77
2021/09/30 05:22:27;;;;;;;;;;;9.40;99.90;;;;;;5077851;28;19924;-78
2021/09/30 05:24:53;;;;;;;;;;;9.40;99.90;;;;;;5077991;28;19924;-77
2021/09/30 05:27:20;;;;;;;;;;;9.40;99.90;;;;;;5077832;28;19925;-77
2021/09/30 05:29:47;;;;;;;;;;;9.40;99.90;;;;;;5077569;28;19928;-77
2021/09/30 05:32:14;;;;;;;;;;;9.40;99.90;;;;;;5077545;28;19935;-77
2021/09/30 05:34:43;;;;;;;;;;;9.50;99.90;;;;;;5077527;28;19943;-77
2021/09/30 05:37:10;;;;;;;;;;;9.50;99.90;;;;;;5077860;28;19983;-77
2021/09/30 05:39:36;;;;;;;;;;;9.50;99.90;;;;;;5077666;28;19929;-77
2021/09/30 05:42:03;;;;;;;;;;;9.50;99.90;;;;;;5077444;28;20237;-77
2021/09/30 05:44:32;;;;;;;;;;;9.50;99.90;;;;;;5077420;28;19931;-77
2021/09/30 05:46:59;;;;;;;;;;;9.50;99.90;;;;;;5077338;28;19932;-77
2021/09/30 05:49:26;;;;;;;;;;;9.50;99.90;;;;;;5077266;28;19924;-77
2021/09/30 05:51:54;;;;;;;;;;;9.50;99.90;;;;;;5077422;28;19947;-77
2021/09/30 05:54:21;;;;;;;;;;;9.50;99.90;;;;;;5077309;28;19924;-77
2021/09/30 05:56:48;;;;;;;;;;;9.50;99.90;;;;;;5077088;28;19934;-77
2021/09/30 05:59:20;;;;;;;;;;;9.60;99.90;;;;;;5077113;28;20360;-77
2021/09/30 06:02:37;;;;;;;;;;;9.60;99.90;;;;;;5077045;28;19924;-77
2021/09/30 06:10:42;;;;;;;;;;;9.60;99.90;;;;;;4938061;29;20025;-78
2021/09/30 06:13:11;;;;;;;;;;;9.60;99.90;;;;;;4938033;29;20365;-77
2021/09/30 06:15:40;;;;;;;;;;;9.60;99.90;;;;;;4937828;29;19927;-77
2021/09/30 06:18:08;;;;;;;;;;;9.70;99.90;;;;;;4937832;29;19934;-77
2021/09/30 06:20:34;;;;;;;;;;;9.60;99.90;;;;;;4937549;29;19983;-77
2021/09/30 06:23:03;;;;;;;;;;;9.70;99.90;;;;;;4937504;29;19979;-77
2021/09/30 06:25:30;;;;;;;;;;;9.70;99.90;;;;;;4937663;29;19934;-77
2021/09/30 06:27:56;;;;;;;;;;;9.70;99.90;;;;;;4937663;29;19934;-77
2021/09/30 06:30:29;;;;;;;;;;;9.80;99.90;;;;;;4937431;29;19946;-78
2021/09/30 06:32:55;;;;;;;;;;;9.80;99.90;;;;;;4937583;29;19933;-77
2021/09/30 06:35:22;;;;;;;;;;;9.80;99.90;;;;;;4937426;29;19956;-77
2021/09/30 06:37:49;;;;;;;;;;;9.80;99.90;;;;;;4937432;29;19927;-77
2021/09/30 06:40:17;;;;;;;;;;;9.90;99.90;;;;;;4937491;29;19949;-77
2021/09/30 06:42:44;;;;;;;;;;;9.90;99.90;;;;;;5029100;28;19924;-77
2021/09/30 06:45:11;;;;;;;;;;;9.90;99.90;;;;;;5076269;28;20252;-77
2021/09/30 06:47:38;;;;;;;;;;;10.00;99.90;;;;;;5076108;28;19924;-77
2021/09/30 06:50:06;;;;;;;;;;;10.00;99.90;;;;;;5075989;28;20375;-78
2021/09/30 06:52:32;;;;;;;;;;;10.00;99.90;;;;;;5075932;28;19924;-77
2021/09/30 06:54:59;;;;;;;;;;;10.00;99.90;;;;;;5075763;28;19935;-77
2021/09/30 06:57:29;;;;;;;;;;;10.00;99.90;;;;;;5075721;28;19924;-78
2021/09/30 06:59:58;;;;;;;;;;;10.00;99.90;;;;;;5075735;28;20253;-78
2021/09/30 07:02:24;;;;;;;;;;;10.10;99.90;;;;;;5075803;28;19946;-77
2021/09/30 07:04:51;;;;;;;;;;;10.10;99.90;;;;;;5075648;28;19924;-78
2021/09/30 07:07:18;;;;;;;;;;;10.10;99.90;;;;;;5076053;28;19935;-77
2021/09/30 07:09:46;;;;;;;;;;;10.10;99.90;;;;;;5075582;28;20344;-77
2021/09/30 07:12:13;;;;;;;;;;;10.20;99.90;;;;;;5075631;28;19932;-77
2021/09/30 07:14:41;;;;;;;;;;;10.20;99.90;;;;;;5075567;28;19935;-77
2021/09/30 07:17:08;;;;;;;;;;;10.20;99.90;;;;;;5075459;28;20248;-77
2021/09/30 07:19:36;;;;;;;;;;;10.30;99.90;;;;;;5075403;28;19932;-77
2021/09/30 07:22:03;;;;;;;;;;;10.30;99.90;;;;;;5075411;28;20422;-77
2021/09/30 07:24:30;;;;;;;;;;;10.30;99.90;;;;;;5075501;28;20357;-77
2021/09/30 07:26:56;;;;;;;;;;;10.30;99.90;;;;;;5075378;28;19932;-77
2021/09/30 07:29:23;;;;;;;;;;;10.40;99.90;;;;;;5075433;28;19928;-77
2021/09/30 07:31:52;;;;;;;;;;;10.40;99.90;;;;;;5074317;28;19924;-76
2021/09/30 07:34:18;;;;;;;;;;;10.40;99.90;;;;;;5075202;28;19924;-77
2021/09/30 07:36:45;;;;;;;;;;;10.40;99.90;;;;;;5075255;28;19924;-77
2021/09/30 07:39:12;;;;;;;;;;;10.50;99.90;;;;;;5075161;28;20256;-77
2021/09/30 07:41:40;;;;;;;;;;;10.50;99.90;;;;;;5075065;28;19925;-77
2021/09/30 07:44:07;;;;;;;;;;;10.50;99.90;;;;;;5075077;28;19935;-77
2021/09/30 07:46:34;;;;;;;;;;;10.50;99.90;;;;;;5075030;28;19934;-77
2021/09/30 07:49:05;;;;;;;;;;;10.60;99.90;;;;;;5075035;28;19924;-77
2021/09/30 07:51:31;;;;;;;;;;;10.60;99.90;;;;;;5074982;28;20319;-77
2021/09/30 07:53:58;;;;;;;;;;;10.60;99.90;;;;;;5075046;28;19924;-77
2021/09/30 07:56:27;;;;;;;;;;;10.60;99.90;;;;;;5074963;28;19935;-77
2021/09/30 07:58:53;;;;;;;;;;;10.60;99.90;;;;;;5074944;28;19936;-77
2021/09/30 08:01:22;;;;;;;;;;;10.60;99.90;;;;;;5075167;28;19924;-78
2021/09/30 08:03:49;;;;;;;;;;;10.70;99.90;;;;;;5074818;28;19962;-77
2021/09/30 08:06:17;;;;;;;;;;;10.70;99.90;;;;;;5074953;28;19925;-77
2021/09/30 08:08:44;;;;;;;;;;;10.70;99.90;;;;;;5075013;28;19928;-77
2021/09/30 08:11:11;;;;;;;;;;;10.70;99.90;;;;;;5074767;28;19925;-77
2021/09/30 08:13:38;;;;;;;;;;;10.80;99.90;;;;;;5074768;28;19925;-77
2021/09/30 08:16:05;;;;;;;;;;;10.80;99.90;;;;;;5074743;28;19951;-78
2021/09/30 08:18:32;;;;;;;;;;;10.80;99.90;;;;;;5074907;28;20306;-77
2021/09/30 08:20:59;;;;;;;;;;;10.80;99.90;;;;;;5074740;28;20302;-77
2021/09/30 08:23:28;;;;;;;;;;;10.80;99.90;;;;;;5074767;28;19928;-77
2021/09/30 08:25:55;;;;;;;;;;;10.80;99.90;;;;;;5074730;28;19924;-78
2021/09/30 08:28:21;;;;;;;;;;;10.90;99.90;;;;;;5074588;28;20370;-78
2021/09/30 08:30:49;;;;;;;;;;;10.90;99.90;;;;;;5074325;28;19924;-77
2021/09/30 08:33:18;;;;;;;;;;;10.90;99.90;;;;;;5074782;28;20002;-77
2021/09/30 08:35:45;;;;;;;;;;;10.90;99.90;;;;;;5074723;28;19924;-77
2021/09/30 08:38:11;;;;;;;;;;;10.90;99.90;;;;;;5074741;28;19978;-77
2021/09/30 08:40:41;;;;;;;;;;;10.90;99.90;;;;;;5074595;28;20267;-77
2021/09/30 08:43:08;;;;;;;;;;;10.90;99.90;;;;;;5077163;28;19932;-78
2021/09/30 08:45:35;;;;;;;;;;;10.90;99.90;;;;;;5078243;28;19924;-78
2021/09/30 08:48:02;;;;;;;;;;;10.90;99.90;;;;;;5078198;28;19924;-79
2021/09/30 08:50:29;;;;;;;;;;;10.90;99.90;;;;;;5078252;28;19924;-78
2021/09/30 08:52:56;;;;;;;;;;;10.90;99.90;;;;;;5078130;28;19982;-77
2021/09/30 08:55:23;;;;;;;;;;;10.90;99.90;;;;;;5078115;28;19950;-77
2021/09/30 08:57:51;;;;;;;;;;;10.90;99.90;;;;;;5078006;28;19940;-77
2021/09/30 09:00:19;;;;;;;;;;;11.00;99.90;;;;;;5078033;28;19924;-78
2021/09/30 09:02:46;;;;;;;;;;;11.00;99.90;;;;;;5078279;28;19924;-78
2021/09/30 09:05:13;;;;;;;;;;;11.00;99.90;;;;;;5077910;28;19931;-78
2021/09/30 09:07:40;;;;;;;;;;;11.10;99.90;;;;;;5077964;28;19935;-77
2021/09/30 09:10:08;;;;;;;;;;;11.10;99.90;;;;;;5077762;28;20045;-79
2021/09/30 09:12:35;;;;;;;;;;;11.10;99.90;;;;;;5078040;28;19924;-77
2021/09/30 09:15:04;;;;;;;;;;;11.10;99.90;;;;;;5077695;28;20337;-77
2021/09/30 09:17:31;;;;;;;;;;;11.20;99.90;;;;;;5077812;28;19925;-77
2021/09/30 09:19:58;;;;;;;;;;;11.20;99.90;;;;;;5077684;28;19924;-78
2021/09/30 09:22:27;;;;;;;;;;;11.30;99.90;;;;;;5078092;28;20280;-78
2021/09/30 09:24:59;;;;;;;;;;;11.30;99.90;;;;;;5077543;28;19935;-77
2021/09/30 09:27:26;;;;;;;;;;;11.30;99.90;;;;;;5077486;28;20382;-78
2021/09/30 09:29:54;;;;;;;;;;;11.30;99.90;;;;;;5077451;28;19924;-77
2021/09/30 09:32:28;;;;;;;;;;;11.40;99.90;;;;;;5077540;28;20275;-78
2021/09/30 09:34:56;;;;;;;;;;;11.40;99.90;;;;;;5077515;28;19934;-76
2021/09/30 09:37:29;;;;;;;;;;;11.40;99.90;;;;;;5077350;28;20074;-77
2021/09/30 09:39:58;;;;;;;;;;;11.40;99.90;;;;;;5077549;28;19951;-78
2021/09/30 09:42:36;;;;;;;;;;;11.50;99.90;;;;;;5077549;28;19935;-79
2021/09/30 09:45:05;;;;;;;;;;;11.40;99.90;;;;;;5077386;28;19951;-77
2021/09/30 09:47:36;;;;;;;;;;;11.50;99.90;;;;;;5077182;28;20363;-77
2021/09/30 09:50:15;;;;;;;;;;;11.60;99.90;;;;;;5077064;28;19925;-77
2021/09/30 09:52:48;;;;;;;;;;;11.60;99.90;;;;;;5077224;28;19935;-77
2021/09/30 09:55:16;;;;;;;;;;;11.70;99.90;;;;;;5076365;28;19928;-77
2021/09/30 09:57:58;;;;;;;;;;;11.80;99.90;;;;;;5077156;28;19925;-77
2021/09/30 10:00:26;;;;;;;;;;;11.90;99.90;;;;;;5076948;28;20386;-77
2021/09/30 10:03:08;;;;;;;;;;;12.00;99.90;;;;;;5076957;28;19932;-77
2021/09/30 10:05:35;;;;;;;;;;;12.00;99.90;;;;;;5076845;28;19937;-77
2021/09/30 10:08:03;;;;;;;;;;;12.10;99.90;;;;;;5076852;28;19935;-78
2021/09/30 10:10:31;;;;;;;;;;;12.10;99.90;;;;;;5076528;28;20271;-77
2021/09/30 10:12:58;;;;;;;;;;;12.20;99.90;;;;;;5076602;28;20336;-77
2021/09/30 10:15:25;;;;;;;;;;;12.30;99.90;;;;;;5076515;28;19933;-78
2021/09/30 10:17:58;;;;;;;;;;;12.40;99.90;;;;;;5076527;28;19925;-79
2021/09/30 10:20:26;;;;;;;;;;;12.50;99.90;;;;;;5076653;28;19938;-80
2021/09/30 10:22:55;;;;;;;;;;;12.60;99.90;;;;;;5076456;28;20345;-79
2021/09/30 10:25:23;;;;;;;;;;;12.70;99.90;;;;;;5076400;28;19924;-79
2021/09/30 10:27:54;;;;;;;;;;;12.80;99.90;;;;;;5076382;28;19924;-79
2021/09/30 10:30:35;;;;;;;;;;;12.90;99.90;;;;;;5076007;28;20264;-80
2021/09/30 10:33:06;;;;;;;;;;;12.90;99.90;;;;;;5076384;28;19943;-80
2021/09/30 10:35:34;;;;;;;;;;;13.00;99.90;;;;;;5076167;28;20253;-79
2021/09/30 10:38:17;;;;;;;;;;;13.10;99.90;;;;;;5076078;28;19942;-82
2021/09/30 10:41:03;;;;;;;;;;;13.10;99.90;;;;;;5076267;28;19924;-82
2021/09/30 10:43:30;;;;;;;;;;;13.20;99.90;;;;;;5075309;28;20355;-79
2021/09/30 10:45:57;;;;;;;;;;;13.20;99.90;;;;;;5075824;28;20273;-78
2021/09/30 10:48:39;;;;;;;;;;;13.20;99.90;;;;;;5075943;28;19925;-79
2021/09/30 10:51:08;;;;;;;;;;;13.30;99.90;;;;;;5075892;28;19933;-79
2021/09/30 10:53:54;;;;;;;;;;;13.30;99.90;;;;;;5075483;28;19934;-79
2021/09/30 10:56:39;;;;;;;;;;;13.40;99.90;;;;;;5076022;28;20294;-79
2021/09/30 10:59:39;;;;;;;;;;;13.40;99.90;;;;;;5075940;28;20176;-77
2021/09/30 11:02:06;;;;;;;;;;;13.50;99.90;;;;;;5014543;28;20374;-79
2021/09/30 11:04:32;;;;;;;;;;;13.50;99.90;;;;;;5014475;28;19926;-78
2021/09/30 11:10:11;;;;;;;;;;;13.50;99.90;;;;;;5133729;27;19918;-79
2021/09/30 11:12:41;;;;;;;;;;;13.60;99.90;;;;;;5129767;27;19938;-80
2021/09/30 11:15:08;;;;;;;;;;;13.80;99.90;;;;;;5132848;28;19928;-79
2021/09/30 11:17:36;;;;;;;;;;;13.80;99.90;;;;;;5133490;28;19924;-80
2021/09/30 11:20:28;;;;;;;;;;;13.90;99.90;;;;;;5133309;28;19923;-81
2021/09/30 11:22:56;;;;;;;;;;;14.00;99.90;;;;;;5117729;28;19924;-82
2021/09/30 11:25:35;;;;;;;;;;;14.20;99.90;;;;;;5132025;28;20400;-79
2021/09/30 11:28:15;;;;;;;;;;;14.20;99.90;;;;;;5132462;27;19924;-80
2021/09/30 11:30:43;;;;;;;;;;;14.30;99.90;;;;;;5133135;28;19930;-83
2021/09/30 11:33:11;;;;;;;;;;;14.40;99.90;;;;;;5131612;28;19942;-81
2021/09/30 11:35:39;;;;;;;;;;;14.50;99.90;;;;;;5133269;28;20279;-81
2021/09/30 11:38:07;;;;;;;;;;;14.50;99.90;;;;;;5132996;28;19934;-79
2021/09/30 11:40:36;;;;;;;;;;;14.60;99.90;;;;;;5132743;27;19934;-81
2021/09/30 11:43:04;;;;;;;;;;;14.70;99.90;;;;;;5132912;28;19934;-81
2021/09/30 11:45:45;;;;;;;;;;;14.70;99.90;;;;;;5132842;28;19923;-81
2021/09/30 11:48:13;;;;;;;;;;;14.80;99.90;;;;;;5130521;27;19923;-81
2021/09/30 11:50:44;;;;;;;;;;;14.90;99.90;;;;;;5132976;28;19923;-81
2021/09/30 11:53:12;;;;;;;;;;;15.00;99.90;;;;;;5133001;27;20212;-82
2021/09/30 11:55:43;;;;;;;;;;;15.00;99.90;;;;;;5132876;28;19923;-81
2021/09/30 11:58:13;;;;;;;;;;;15.00;99.90;;;;;;5132677;28;19924;-80
2021/09/30 12:00:43;;;;;;;;;;;15.00;99.90;;;;;;5132547;28;19967;-80
2021/09/30 12:03:10;;;;;;;;;;;15.00;99.90;;;;;;5132506;28;19934;-81
2021/09/30 12:05:37;;;;;;;;;;;15.00;99.90;;;;;;5132168;28;19934;-80
2021/09/30 12:08:04;;;;;;;;;;;15.00;99.90;;;;;;5132402;28;19938;-80
2021/09/30 12:10:32;;;;;;;;;;;14.90;99.90;;;;;;5132367;28;19923;-79
2021/09/30 12:12:59;;;;;;;;;;;14.80;99.90;;;;;;5132492;27;20263;-82
2021/09/30 12:15:26;;;;;;;;;;;14.70;99.90;;;;;;5132285;28;19923;-82
2021/09/30 12:17:55;;;;;;;;;;;14.70;99.90;;;;;;5132123;28;19924;-82
2021/09/30 12:20:22;;;;;;;;;;;14.70;99.90;;;;;;5124260;28;20018;-81
2021/09/30 12:22:51;;;;;;;;;;;14.70;99.90;;;;;;5118509;28;19924;-82
2021/09/30 12:25:19;;;;;;;;;;;14.70;99.90;;;;;;5118522;28;19924;-82
2021/09/30 12:27:47;;;;;;;;;;;14.80;99.90;;;;;;5118322;28;19934;-82
2021/09/30 12:30:16;;;;;;;;;;;14.80;99.90;;;;;;5118487;28;19934;-83
2021/09/30 12:32:44;;;;;;;;;;;14.80;99.90;;;;;;5116900;28;19923;-82
2021/09/30 12:35:18;;;;;;;;;;;14.80;99.90;;;;;;5117247;28;19924;-82
2021/09/30 12:37:46;;;;;;;;;;;14.80;99.90;;;;;;5117192;28;19932;-82
2021/09/30 12:40:15;;;;;;;;;;;14.80;99.90;;;;;;5116706;28;20085;-82
2021/09/30 12:42:55;;;;;;;;;;;14.80;99.90;;;;;;5118171;28;20310;-82
2021/09/30 12:45:23;;;;;;;;;;;14.70;99.90;;;;;;5118046;28;19924;-79
2021/09/30 12:47:58;;;;;;;;;;;14.70;99.90;;;;;;5117901;28;19923;-78
2021/09/30 12:50:33;;;;;;;;;;;14.70;99.90;;;;;;5118051;28;20006;-79
2021/09/30 12:53:01;;;;;;;;;;;14.70;99.90;;;;;;5117839;28;20351;-81
2021/09/30 12:55:30;;;;;;;;;;;14.60;99.90;;;;;;5117705;28;19934;-81
2021/09/30 12:57:58;;;;;;;;;;;14.60;99.90;;;;;;5117724;28;20352;-85
2021/09/30 13:00:26;;;;;;;;;;;14.60;99.90;;;;;;5117975;28;19924;-89
2021/09/30 13:02:58;;;;;;;;;;;14.60;99.90;;;;;;5117941;28;19934;-87
2021/09/30 13:05:37;;;;;;;;;;;14.60;99.90;;;;;;5117659;28;20400;-88
2021/09/30 13:08:05;;;;;;;;;;;14.50;99.90;;;;;;5117495;28;19931;-88
2021/09/30 13:10:34;;;;;;;;;;;14.50;99.90;;;;;;5117560;28;20262;-89
2021/09/30 13:13:01;;;;;;;;;;;14.50;99.90;;;;;;5117738;28;19923;-87
2021/09/30 13:15:41;;;;;;;;;;;14.50;99.90;;;;;;5117632;28;19923;-89
2021/09/30 13:18:09;;;;;;;;;;;14.50;99.90;;;;;;5117877;28;19923;-87
2021/09/30 13:20:38;;;;;;;;;;;14.50;99.90;;;;;;5117598;28;20244;-88
2021/09/30 13:23:04;;;;;;;;;;;14.50;99.90;;;;;;5117459;28;19924;-88
2021/09/30 13:25:31;;;;;;;;;;;14.50;99.90;;;;;;5116939;28;20362;-89
2021/09/30 13:27:58;;;;;;;;;;;14.60;99.90;;;;;;5117152;28;19924;-90
2021/09/30 13:30:26;;;;;;;;;;;14.60;99.90;;;;;;5117425;28;19935;-91
2021/09/30 13:32:56;;;;;;;;;;;14.60;99.90;;;;;;5116215;28;20370;-89
2021/09/30 13:35:25;;;;;;;;;;;14.60;99.90;;;;;;5117055;28;19967;-88
2021/09/30 13:37:54;;;;;;;;;;;14.60;99.90;;;;;;5116961;28;19934;-88
2021/09/30 13:40:22;;;;;;;;;;;14.60;99.90;;;;;;5116922;28;19924;-87
2021/09/30 13:42:50;;;;;;;;;;;14.70;99.90;;;;;;5116915;28;19924;-87
2021/09/30 13:45:17;;;;;;;;;;;14.80;99.90;;;;;;5116884;28;19923;-85
2021/09/30 13:47:45;;;;;;;;;;;14.80;99.90;;;;;;5116751;28;19924;-88
2021/09/30 13:50:14;;;;;;;;;;;14.90;99.90;;;;;;5116647;28;19934;-86
2021/09/30 13:52:41;;;;;;;;;;;15.00;99.90;;;;;;5116660;28;20339;-86
2021/09/30 13:55:10;;;;;;;;;;;15.00;99.90;;;;;;5116803;28;19989;-85
2021/09/30 13:57:37;;;;;;;;;;;15.00;99.90;;;;;;5116510;28;20362;-84
2021/09/30 14:00:04;;;;;;;;;;;15.00;99.90;;;;;;5116432;28;19934;-86
2021/09/30 14:02:31;;;;;;;;;;;15.00;99.90;;;;;;5115626;28;19941;-86
2021/09/30 14:04:58;;;;;;;;;;;15.10;99.90;;;;;;5116424;28;19985;-85
2021/09/30 14:07:25;;;;;;;;;;;15.00;99.90;;;;;;5116327;28;19923;-85
2021/09/30 14:09:53;;;;;;;;;;;15.10;99.90;;;;;;5116077;28;19924;-84
2021/09/30 14:12:21;;;;;;;;;;;15.00;99.90;;;;;;5116454;28;19971;-87
2021/09/30 14:14:48;;;;;;;;;;;15.10;99.90;;;;;;5116522;28;19946;-87
2021/09/30 14:17:15;;;;;;;;;;;15.10;99.90;;;;;;5116392;28;20374;-87
2021/09/30 14:19:42;;;;;;;;;;;15.10;99.90;;;;;;5116132;28;19928;-86
2021/09/30 14:22:09;;;;;;;;;;;15.00;99.90;;;;;;5116326;28;20008;-86
2021/09/30 14:24:35;;;;;;;;;;;15.00;99.90;;;;;;5116302;28;19923;-87
2021/09/30 14:27:02;;;;;;;;;;;15.00;99.90;;;;;;5116049;28;20240;-87
2021/09/30 14:29:31;;;;;;;;;;;15.00;99.90;;;;;;5115991;28;19950;-90
2021/09/30 14:31:58;;;;;;;;;;;14.90;99.90;;;;;;5114462;28;19924;-90
2021/09/30 14:34:25;;;;;;;;;;;14.90;99.90;;;;;;5115865;28;19967;-91
2021/09/30 14:36:52;;;;;;;;;;;14.90;99.90;;;;;;5116302;28;19924;-91
2021/09/30 14:39:32;;;;;;;;;;;14.90;99.90;;;;;;5116388;28;19924;-90
2021/09/30 14:42:00;;;;;;;;;;;14.90;99.90;;;;;;5116608;28;19975;-91
2021/09/30 14:44:30;;;;;;;;;;;14.80;99.90;;;;;;5114400;28;20007;-91
2021/09/30 14:47:00;;;;;;;;;;;14.90;99.90;;;;;;5116692;28;19970;-90
2021/09/30 14:49:31;;;;;;;;;;;14.90;99.90;;;;;;5116017;28;19931;-89
2021/09/30 14:51:59;;;;;;;;;;;14.90;99.90;;;;;;5116000;28;20264;-89
2021/09/30 14:54:27;;;;;;;;;;;14.90;99.90;;;;;;5116031;28;19934;-89
2021/09/30 14:56:55;;;;;;;;;;;14.90;99.90;;;;;;5115916;28;19924;-88
2021/09/30 14:59:23;;;;;;;;;;;14.90;99.90;;;;;;5115706;28;19924;-88
2021/09/30 15:01:51;;;;;;;;;;;14.90;99.90;;;;;;5116001;28;19924;-88
2021/09/30 15:04:25;;;;;;;;;;;14.90;99.90;;;;;;5115656;28;19930;-91
2021/09/30 15:06:53;;;;;;;;;;;14.90;99.90;;;;;;5115997;28;19924;-91
2021/09/30 15:09:22;;;;;;;;;;;14.80;99.90;;;;;;5115049;28;19923;-85
2021/09/30 15:11:50;;;;;;;;;;;14.80;99.90;;;;;;5114933;28;20271;-84
2021/09/30 15:14:18;;;;;;;;;;;14.80;99.90;;;;;;5115517;28;19997;-84
2021/09/30 15:16:53;;;;;;;;;;;14.70;99.90;;;;;;5113388;28;20236;-82
2021/09/30 15:19:24;;;;;;;;;;;14.70;99.90;;;;;;5115519;28;19924;-84
2021/09/30 15:21:52;;;;;;;;;;;14.60;99.90;;;;;;5115498;28;20284;-84
2021/09/30 15:24:25;;;;;;;;;;;14.60;99.90;;;;;;5115315;28;19923;-85
2021/09/30 15:26:52;;;;;;;;;;;14.60;99.90;;;;;;5115381;28;19924;-84
2021/09/30 15:29:19;;;;;;;;;;;14.60;99.90;;;;;;5115249;28;19930;-84
2021/09/30 15:31:46;;;;;;;;;;;14.70;99.90;;;;;;5115456;28;19927;-85
2021/09/30 15:34:13;;;;;;;;;;;14.60;99.90;;;;;;5115288;28;19924;-85
2021/09/30 15:36:41;;;;;;;;;;;14.70;99.90;;;;;;5115588;28;19923;-85
2021/09/30 15:39:08;;;;;;;;;;;14.70;99.90;;;;;;5115184;28;20355;-86
2021/09/30 15:41:35;;;;;;;;;;;14.70;99.90;;;;;;5115169;28;19932;-85
2021/09/30 15:44:02;;;;;;;;;;;14.70;99.90;;;;;;5115341;28;19934;-85
2021/09/30 15:46:29;;;;;;;;;;;14.60;99.90;;;;;;5115211;28;19923;-86
2021/09/30 15:48:56;;;;;;;;;;;14.60;99.90;;;;;;5115435;28;19942;-85
2021/09/30 15:51:23;;;;;;;;;;;14.60;99.90;;;;;;5115246;28;20369;-85
2021/09/30 15:53:51;;;;;;;;;;;14.60;99.90;;;;;;5115127;28;20370;-85
2021/09/30 15:56:18;;;;;;;;;;;14.60;99.90;;;;;;5118336;28;19935;-85
2021/09/30 15:58:44;;;;;;;;;;;14.60;99.90;;;;;;5119196;28;19923;-86
2021/09/30 16:01:12;;;;;;;;;;;14.60;99.90;;;;;;5118969;28;19928;-85
2021/09/30 16:03:39;;;;;;;;;;;14.60;99.90;;;;;;5118978;28;19923;-85
2021/09/30 16:06:06;;;;;;;;;;;14.60;99.90;;;;;;5117818;28;19976;-86
2021/09/30 16:08:33;;;;;;;;;;;14.60;99.90;;;;;;5118732;28;19934;-84
2021/09/30 16:11:01;;;;;;;;;;;14.50;99.90;;;;;;5118576;28;19924;-84
2021/09/30 16:13:28;;;;;;;;;;;14.60;99.90;;;;;;5118682;28;20423;-84
2021/09/30 16:15:56;;;;;;;;;;;14.60;99.90;;;;;;5118502;28;19934;-84
2021/09/30 16:18:24;;;;;;;;;;;14.60;99.90;;;;;;5118523;28;19923;-84
2021/09/30 16:20:53;;;;;;;;;;;14.60;99.90;;;;;;5118507;28;19924;-85
2021/09/30 16:23:21;;;;;;;;;;;14.50;99.90;;;;;;5118505;28;19924;-84
2021/09/30 16:25:49;;;;;;;;;;;14.60;99.90;;;;;;5118421;28;20359;-84
2021/09/30 16:28:20;;;;;;;;;;;14.60;99.90;;;;;;5118454;28;19924;-85
2021/09/30 16:30:53;;;;;;;;;;;14.60;99.90;;;;;;5118415;28;19924;-85
2021/09/30 16:33:21;;;;;;;;;;;14.50;99.90;;;;;;5118204;28;19924;-84
2021/09/30 16:35:49;;;;;;;;;;;14.50;99.90;;;;;;5118270;28;20355;-85
2021/09/30 16:38:18;;;;;;;;;;;14.50;99.90;;;;;;5118345;28;19923;-85
2021/09/30 16:40:46;;;;;;;;;;;14.50;99.90;;;;;;5118141;28;19932;-85
2021/09/30 16:43:14;;;;;;;;;;;14.50;99.90;;;;;;5118406;28;19924;-86
2021/09/30 16:45:44;;;;;;;;;;;14.50;99.90;;;;;;5118043;28;19928;-86
2021/09/30 16:48:12;;;;;;;;;;;14.40;99.90;;;;;;5118481;28;19924;-86
2021/09/30 16:50:44;;;;;;;;;;;14.40;99.90;;;;;;5118440;28;19923;-88
2021/09/30 16:53:13;;;;;;;;;;;14.40;99.90;;;;;;5118213;28;19924;-80
2021/09/30 16:55:42;;;;;;;;;;;14.30;99.90;;;;;;5118024;28;20310;-84
2021/09/30 16:58:10;;;;;;;;;;;14.30;99.90;;;;;;5119148;28;19923;-85
2021/09/30 17:00:41;;;;;;;;;;;14.20;99.90;;;;;;5121730;28;20003;-86